sensor_id;sensor_type;location;lat;lon;timestamp;P1;durP1;ratioP1;P2;durP2;ratioP2
10260;SDS011;5175;42.606;23.388;2023-05-16T00:02:17;16.50;;;15.00;;
10260;SDS011;5175;42.606;23.388;2023-05-16T00:04:47;17.13;;;15.53;;
10260;SDS011;5175;42.606;23.388;2023-05-16T00:07:14;16.67;;;15.03;;
10260;SDS011;5175;42.606;23.388;2023-05-16T00:09:43;16.53;;;14.90;;
10260;SDS011;5175;42.606;23.388;2023-05-16T00:12:11;17.73;;;16.03;;
10260;SDS011;5175;42.606;23.388;2023-05-16T00:14:38;17.67;;;15.73;;
10260;SDS011;5175;42.606;23.388;2023-05-16T00:17:06;17.20;;;15.50;;
10260;SDS011;5175;42.606;23.388;2023-05-16T00:19:37;18.27;;;16.43;;
10260;SDS011;5175;42.606;23.388;2023-05-16T00:22:13;17.40;;;15.67;;
10260;SDS011;5175;42.606;23.388;2023-05-16T00:24:40;18.10;;;16.30;;
10260;SDS011;5175;42.606;23.388;2023-05-16T00:27:08;18.97;;;17.03;;
10260;SDS011;5175;42.606;23.388;2023-05-16T00:29:36;18.60;;;15.97;;
10260;SDS011;5175;42.606;23.388;2023-05-16T00:32:03;18.20;;;16.27;;
10260;SDS011;5175;42.606;23.388;2023-05-16T00:34:32;18.33;;;16.53;;
10260;SDS011;5175;42.606;23.388;2023-05-16T00:36:59;18.37;;;16.40;;
10260;SDS011;5175;42.606;23.388;2023-05-16T00:39:27;18.03;;;16.23;;
10260;SDS011;5175;42.606;23.388;2023-05-16T00:41:56;19.13;;;17.20;;
10260;SDS011;5175;42.606;23.388;2023-05-16T00:44:25;21.10;;;17.57;;
10260;SDS011;5175;42.606;23.388;2023-05-16T00:46:52;18.13;;;16.23;;
10260;SDS011;5175;42.606;23.388;2023-05-16T00:49:19;18.73;;;16.83;;
10260;SDS011;5175;42.606;23.388;2023-05-16T00:51:48;18.30;;;16.40;;
10260;SDS011;5175;42.606;23.388;2023-05-16T00:54:16;17.43;;;15.83;;
10260;SDS011;5175;42.606;23.388;2023-05-16T00:56:43;19.70;;;17.73;;
10260;SDS011;5175;42.606;23.388;2023-05-16T00:59:11;18.97;;;17.07;;
10260;SDS011;5175;42.606;23.388;2023-05-16T01:01:39;19.57;;;17.47;;
10260;SDS011;5175;42.606;23.388;2023-05-16T01:04:13;19.37;;;17.47;;
10260;SDS011;5175;42.606;23.388;2023-05-16T01:06:40;18.77;;;16.97;;
10260;SDS011;5175;42.606;23.388;2023-05-16T01:09:07;19.73;;;17.63;;
10260;SDS011;5175;42.606;23.388;2023-05-16T01:11:37;20.20;;;17.13;;
10260;SDS011;5175;42.606;23.388;2023-05-16T01:14:15;20.20;;;18.10;;
10260;SDS011;5175;42.606;23.388;2023-05-16T01:16:53;19.33;;;17.37;;
10260;SDS011;5175;42.606;23.388;2023-05-16T01:19:31;18.07;;;16.27;;
10260;SDS011;5175;42.606;23.388;2023-05-16T01:22:15;18.77;;;16.97;;
10260;SDS011;5175;42.606;23.388;2023-05-16T01:24:48;18.57;;;16.87;;
10260;SDS011;5175;42.606;23.388;2023-05-16T01:27:30;19.50;;;17.60;;
10260;SDS011;5175;42.606;23.388;2023-05-16T01:29:58;19.33;;;17.37;;
10260;SDS011;5175;42.606;23.388;2023-05-16T01:32:25;19.50;;;17.70;;
10260;SDS011;5175;42.606;23.388;2023-05-16T01:34:52;18.67;;;16.87;;
10260;SDS011;5175;42.606;23.388;2023-05-16T01:37:20;19.20;;;17.30;;
10260;SDS011;5175;42.606;23.388;2023-05-16T01:39:51;19.20;;;17.33;;
10260;SDS011;5175;42.606;23.388;2023-05-16T01:42:23;19.23;;;17.30;;
10260;SDS011;5175;42.606;23.388;2023-05-16T01:44:55;19.20;;;17.30;;
10260;SDS011;5175;42.606;23.388;2023-05-16T01:47:26;19.47;;;17.57;;
10260;SDS011;5175;42.606;23.388;2023-05-16T01:49:56;19.67;;;17.80;;
10260;SDS011;5175;42.606;23.388;2023-05-16T01:52:34;18.57;;;16.93;;
10260;SDS011;5175;42.606;23.388;2023-05-16T01:55:06;18.90;;;17.00;;
10260;SDS011;5175;42.606;23.388;2023-05-16T01:57:37;20.40;;;17.10;;
10260;SDS011;5175;42.606;23.388;2023-05-16T02:00:07;17.97;;;16.07;;
10260;SDS011;5175;42.606;23.388;2023-05-16T02:02:35;17.90;;;16.10;;
10260;SDS011;5175;42.606;23.388;2023-05-16T02:05:02;17.70;;;16.10;;
10260;SDS011;5175;42.606;23.388;2023-05-16T02:07:29;17.97;;;16.27;;
10260;SDS011;5175;42.606;23.388;2023-05-16T02:09:56;17.47;;;15.67;;
10260;SDS011;5175;42.606;23.388;2023-05-16T02:12:23;17.00;;;15.33;;
10260;SDS011;5175;42.606;23.388;2023-05-16T02:14:50;17.17;;;15.43;;
10260;SDS011;5175;42.606;23.388;2023-05-16T02:17:21;17.33;;;15.57;;
10260;SDS011;5175;42.606;23.388;2023-05-16T02:19:47;17.47;;;15.77;;
10260;SDS011;5175;42.606;23.388;2023-05-16T02:22:14;17.00;;;15.27;;
10260;SDS011;5175;42.606;23.388;2023-05-16T02:24:43;17.47;;;15.70;;
10260;SDS011;5175;42.606;23.388;2023-05-16T02:27:11;17.33;;;15.70;;
10260;SDS011;5175;42.606;23.388;2023-05-16T02:29:37;19.70;;;15.30;;
10260;SDS011;5175;42.606;23.388;2023-05-16T02:32:05;16.53;;;14.83;;
10260;SDS011;5175;42.606;23.388;2023-05-16T02:34:33;16.67;;;15.07;;
10260;SDS011;5175;42.606;23.388;2023-05-16T02:37:03;15.83;;;14.27;;
10260;SDS011;5175;42.606;23.388;2023-05-16T02:39:30;16.17;;;14.50;;
10260;SDS011;5175;42.606;23.388;2023-05-16T02:41:57;15.40;;;13.90;;
10260;SDS011;5175;42.606;23.388;2023-05-16T02:44:24;16.83;;;15.17;;
10260;SDS011;5175;42.606;23.388;2023-05-16T02:46:50;17.10;;;15.40;;
10260;SDS011;5175;42.606;23.388;2023-05-16T02:49:19;16.63;;;15.03;;
10260;SDS011;5175;42.606;23.388;2023-05-16T02:51:48;16.10;;;14.60;;
10260;SDS011;5175;42.606;23.388;2023-05-16T02:54:15;16.60;;;15.00;;
10260;SDS011;5175;42.606;23.388;2023-05-16T02:56:42;16.23;;;14.63;;
10260;SDS011;5175;42.606;23.388;2023-05-16T02:59:12;16.17;;;14.63;;
10260;SDS011;5175;42.606;23.388;2023-05-16T03:01:48;16.60;;;15.10;;
10260;SDS011;5175;42.606;23.388;2023-05-16T03:04:18;16.83;;;15.30;;
10260;SDS011;5175;42.606;23.388;2023-05-16T03:06:51;16.27;;;14.70;;
10260;SDS011;5175;42.606;23.388;2023-05-16T03:09:20;15.97;;;14.37;;
10260;SDS011;5175;42.606;23.388;2023-05-16T03:11:50;15.90;;;14.30;;
10260;SDS011;5175;42.606;23.388;2023-05-16T03:14:22;15.00;;;13.70;;
10260;SDS011;5175;42.606;23.388;2023-05-16T03:16:49;15.17;;;13.63;;
10260;SDS011;5175;42.606;23.388;2023-05-16T03:19:16;16.67;;;14.87;;
10260;SDS011;5175;42.606;23.388;2023-05-16T03:21:43;17.20;;;15.27;;
10260;SDS011;5175;42.606;23.388;2023-05-16T03:24:11;17.30;;;15.70;;
10260;SDS011;5175;42.606;23.388;2023-05-16T03:26:38;17.57;;;15.80;;
10260;SDS011;5175;42.606;23.388;2023-05-16T03:29:05;17.33;;;15.70;;
10260;SDS011;5175;42.606;23.388;2023-05-16T03:31:32;17.30;;;15.57;;
10260;SDS011;5175;42.606;23.388;2023-05-16T03:34:00;16.93;;;15.23;;
10260;SDS011;5175;42.606;23.388;2023-05-16T03:36:28;17.27;;;15.50;;
10260;SDS011;5175;42.606;23.388;2023-05-16T03:39:01;17.83;;;16.00;;
10260;SDS011;5175;42.606;23.388;2023-05-16T03:41:29;17.17;;;15.47;;
10260;SDS011;5175;42.606;23.388;2023-05-16T03:43:56;17.03;;;15.40;;
10260;SDS011;5175;42.606;23.388;2023-05-16T03:46:23;17.53;;;15.77;;
10260;SDS011;5175;42.606;23.388;2023-05-16T03:48:50;17.30;;;15.60;;
10260;SDS011;5175;42.606;23.388;2023-05-16T03:51:17;17.60;;;15.90;;
10260;SDS011;5175;42.606;23.388;2023-05-16T03:53:44;17.27;;;15.57;;
10260;SDS011;5175;42.606;23.388;2023-05-16T03:56:11;17.90;;;16.20;;
10260;SDS011;5175;42.606;23.388;2023-05-16T03:58:39;17.07;;;15.37;;
10260;SDS011;5175;42.606;23.388;2023-05-16T04:01:06;16.37;;;14.83;;
10260;SDS011;5175;42.606;23.388;2023-05-16T04:03:32;17.60;;;15.83;;
10260;SDS011;5175;42.606;23.388;2023-05-16T04:06:00;17.47;;;15.77;;
10260;SDS011;5175;42.606;23.388;2023-05-16T04:08:27;19.43;;;17.10;;
10260;SDS011;5175;42.606;23.388;2023-05-16T04:10:53;18.47;;;16.77;;
10260;SDS011;5175;42.606;23.388;2023-05-16T04:13:20;17.83;;;16.07;;
10260;SDS011;5175;42.606;23.388;2023-05-16T04:15:48;19.80;;;17.67;;
10260;SDS011;5175;42.606;23.388;2023-05-16T04:18:15;18.73;;;16.37;;
10260;SDS011;5175;42.606;23.388;2023-05-16T04:20:43;19.50;;;17.60;;
10260;SDS011;5175;42.606;23.388;2023-05-16T04:23:11;18.77;;;16.80;;
10260;SDS011;5175;42.606;23.388;2023-05-16T04:25:38;18.53;;;16.73;;
10260;SDS011;5175;42.606;23.388;2023-05-16T04:28:07;18.13;;;16.43;;
10260;SDS011;5175;42.606;23.388;2023-05-16T04:30:33;17.80;;;16.10;;
10260;SDS011;5175;42.606;23.388;2023-05-16T04:33:03;16.57;;;15.07;;
10260;SDS011;5175;42.606;23.388;2023-05-16T04:35:30;17.23;;;15.63;;
10260;SDS011;5175;42.606;23.388;2023-05-16T04:37:57;22.13;;;15.60;;
10260;SDS011;5175;42.606;23.388;2023-05-16T04:40:24;19.27;;;15.63;;
10260;SDS011;5175;42.606;23.388;2023-05-16T04:42:51;16.60;;;15.00;;
10260;SDS011;5175;42.606;23.388;2023-05-16T04:45:19;16.93;;;15.37;;
10260;SDS011;5175;42.606;23.388;2023-05-16T04:47:46;16.90;;;15.20;;
10260;SDS011;5175;42.606;23.388;2023-05-16T04:50:14;16.60;;;15.00;;
10260;SDS011;5175;42.606;23.388;2023-05-16T04:52:42;17.00;;;15.40;;
10260;SDS011;5175;42.606;23.388;2023-05-16T04:55:09;15.80;;;14.23;;
10260;SDS011;5175;42.606;23.388;2023-05-16T04:57:36;16.60;;;14.97;;
10260;SDS011;5175;42.606;23.388;2023-05-16T05:00:05;16.50;;;14.70;;
10260;SDS011;5175;42.606;23.388;2023-05-16T05:02:34;15.07;;;13.67;;
10260;SDS011;5175;42.606;23.388;2023-05-16T05:05:01;17.10;;;15.30;;
10260;SDS011;5175;42.606;23.388;2023-05-16T05:07:30;15.63;;;14.03;;
10260;SDS011;5175;42.606;23.388;2023-05-16T05:09:57;15.70;;;14.03;;
10260;SDS011;5175;42.606;23.388;2023-05-16T05:12:24;15.90;;;14.33;;
10260;SDS011;5175;42.606;23.388;2023-05-16T05:14:51;15.83;;;14.43;;
10260;SDS011;5175;42.606;23.388;2023-05-16T05:17:18;15.40;;;13.90;;
10260;SDS011;5175;42.606;23.388;2023-05-16T05:19:46;15.43;;;13.97;;
10260;SDS011;5175;42.606;23.388;2023-05-16T05:22:13;14.80;;;13.30;;
10260;SDS011;5175;42.606;23.388;2023-05-16T05:24:41;16.47;;;14.70;;
10260;SDS011;5175;42.606;23.388;2023-05-16T05:27:08;14.83;;;13.23;;
10260;SDS011;5175;42.606;23.388;2023-05-16T05:29:35;15.50;;;13.90;;
10260;SDS011;5175;42.606;23.388;2023-05-16T05:32:02;15.50;;;13.90;;
10260;SDS011;5175;42.606;23.388;2023-05-16T05:34:32;19.33;;;13.80;;
10260;SDS011;5175;42.606;23.388;2023-05-16T05:36:59;15.57;;;13.67;;
10260;SDS011;5175;42.606;23.388;2023-05-16T05:39:26;14.23;;;12.73;;
10260;SDS011;5175;42.606;23.388;2023-05-16T05:41:54;14.90;;;13.47;;
10260;SDS011;5175;42.606;23.388;2023-05-16T05:44:21;15.47;;;13.43;;
10260;SDS011;5175;42.606;23.388;2023-05-16T05:46:48;14.17;;;12.77;;
10260;SDS011;5175;42.606;23.388;2023-05-16T05:49:15;14.50;;;13.07;;
10260;SDS011;5175;42.606;23.388;2023-05-16T05:51:42;16.00;;;13.83;;
10260;SDS011;5175;42.606;23.388;2023-05-16T05:54:09;15.27;;;13.53;;
10260;SDS011;5175;42.606;23.388;2023-05-16T05:56:35;14.43;;;12.83;;
10260;SDS011;5175;42.606;23.388;2023-05-16T05:59:04;15.17;;;13.63;;
10260;SDS011;5175;42.606;23.388;2023-05-16T06:01:30;15.03;;;13.53;;
10260;SDS011;5175;42.606;23.388;2023-05-16T06:03:57;15.23;;;13.63;;
10260;SDS011;5175;42.606;23.388;2023-05-16T06:06:24;18.40;;;13.40;;
10260;SDS011;5175;42.606;23.388;2023-05-16T06:08:51;14.80;;;13.30;;
10260;SDS011;5175;42.606;23.388;2023-05-16T06:11:18;14.73;;;13.17;;
10260;SDS011;5175;42.606;23.388;2023-05-16T06:13:45;14.37;;;12.97;;
10260;SDS011;5175;42.606;23.388;2023-05-16T06:16:13;15.33;;;12.90;;
10260;SDS011;5175;42.606;23.388;2023-05-16T06:18:40;15.03;;;12.83;;
10260;SDS011;5175;42.606;23.388;2023-05-16T06:21:07;13.87;;;12.33;;
10260;SDS011;5175;42.606;23.388;2023-05-16T06:23:34;15.83;;;11.53;;
10260;SDS011;5175;42.606;23.388;2023-05-16T06:26:01;13.53;;;11.90;;
10260;SDS011;5175;42.606;23.388;2023-05-16T06:28:28;12.70;;;11.40;;
10260;SDS011;5175;42.606;23.388;2023-05-16T06:30:55;14.23;;;11.73;;
10260;SDS011;5175;42.606;23.388;2023-05-16T06:33:24;16.03;;;11.83;;
10260;SDS011;5175;42.606;23.388;2023-05-16T06:35:51;12.67;;;11.03;;
10260;SDS011;5175;42.606;23.388;2023-05-16T06:38:18;13.70;;;10.83;;
10260;SDS011;5175;42.606;23.388;2023-05-16T06:40:44;12.63;;;10.53;;
10260;SDS011;5175;42.606;23.388;2023-05-16T06:43:11;11.37;;;10.27;;
10260;SDS011;5175;42.606;23.388;2023-05-16T06:45:38;12.90;;;10.70;;
10260;SDS011;5175;42.606;23.388;2023-05-16T06:48:06;10.87;;;9.50;;
10260;SDS011;5175;42.606;23.388;2023-05-16T06:50:34;13.43;;;11.77;;
10260;SDS011;5175;42.606;23.388;2023-05-16T06:53:01;10.90;;;9.77;;
10260;SDS011;5175;42.606;23.388;2023-05-16T06:55:29;14.33;;;10.20;;
10260;SDS011;5175;42.606;23.388;2023-05-16T06:57:55;12.47;;;10.33;;
10260;SDS011;5175;42.606;23.388;2023-05-16T07:00:22;11.77;;;10.43;;
10260;SDS011;5175;42.606;23.388;2023-05-16T07:02:49;16.13;;;10.40;;
10260;SDS011;5175;42.606;23.388;2023-05-16T07:05:17;13.23;;;10.97;;
10260;SDS011;5175;42.606;23.388;2023-05-16T07:07:45;12.03;;;10.23;;
10260;SDS011;5175;42.606;23.388;2023-05-16T07:10:13;11.30;;;9.27;;
10260;SDS011;5175;42.606;23.388;2023-05-16T07:12:40;11.00;;;9.40;;
10260;SDS011;5175;42.606;23.388;2023-05-16T07:15:08;11.10;;;9.87;;
10260;SDS011;5175;42.606;23.388;2023-05-16T07:17:36;11.60;;;9.80;;
10260;SDS011;5175;42.606;23.388;2023-05-16T07:20:03;12.90;;;9.50;;
10260;SDS011;5175;42.606;23.388;2023-05-16T07:22:30;12.17;;;9.10;;
10260;SDS011;5175;42.606;23.388;2023-05-16T07:24:58;14.37;;;9.73;;
10260;SDS011;5175;42.606;23.388;2023-05-16T07:27:25;12.03;;;9.93;;
10260;SDS011;5175;42.606;23.388;2023-05-16T07:29:52;13.30;;;8.87;;
10260;SDS011;5175;42.606;23.388;2023-05-16T07:32:19;12.00;;;9.50;;
10260;SDS011;5175;42.606;23.388;2023-05-16T07:34:46;13.63;;;9.50;;
10260;SDS011;5175;42.606;23.388;2023-05-16T07:37:13;10.63;;;9.63;;
10260;SDS011;5175;42.606;23.388;2023-05-16T07:39:40;10.27;;;9.20;;
10260;SDS011;5175;42.606;23.388;2023-05-16T07:42:08;10.37;;;9.37;;
10260;SDS011;5175;42.606;23.388;2023-05-16T07:44:35;12.75;;;9.85;;
10260;SDS011;5175;42.606;23.388;2023-05-16T07:47:02;11.40;;;9.90;;
10260;SDS011;5175;42.606;23.388;2023-05-16T07:49:30;11.40;;;9.33;;
10260;SDS011;5175;42.606;23.388;2023-05-16T07:51:56;12.07;;;9.60;;
10260;SDS011;5175;42.606;23.388;2023-05-16T07:54:23;11.80;;;9.55;;
10260;SDS011;5175;42.606;23.388;2023-05-16T07:56:50;12.77;;;9.10;;
10260;SDS011;5175;42.606;23.388;2023-05-16T07:59:18;12.37;;;10.10;;
10260;SDS011;5175;42.606;23.388;2023-05-16T08:01:45;12.02;;;9.50;;
10260;SDS011;5175;42.606;23.388;2023-05-16T08:04:12;11.23;;;9.90;;
10260;SDS011;5175;42.606;23.388;2023-05-16T08:06:39;10.93;;;9.67;;
10260;SDS011;5175;42.606;23.388;2023-05-16T08:09:06;10.13;;;9.23;;
10260;SDS011;5175;42.606;23.388;2023-05-16T08:11:33;12.67;;;9.20;;
10260;SDS011;5175;42.606;23.388;2023-05-16T08:14:01;12.07;;;9.50;;
10260;SDS011;5175;42.606;23.388;2023-05-16T08:16:29;10.97;;;9.83;;
10260;SDS011;5175;42.606;23.388;2023-05-16T08:18:56;11.43;;;9.67;;
10260;SDS011;5175;42.606;23.388;2023-05-16T08:21:23;12.35;;;9.73;;
10260;SDS011;5175;42.606;23.388;2023-05-16T08:23:50;11.43;;;8.55;;
10260;SDS011;5175;42.606;23.388;2023-05-16T08:26:17;12.68;;;9.52;;
10260;SDS011;5175;42.606;23.388;2023-05-16T08:28:46;13.70;;;8.90;;
10260;SDS011;5175;42.606;23.388;2023-05-16T08:31:13;10.05;;;9.02;;
10260;SDS011;5175;42.606;23.388;2023-05-16T08:33:41;10.57;;;8.90;;
10260;SDS011;5175;42.606;23.388;2023-05-16T08:36:08;11.80;;;9.03;;
10260;SDS011;5175;42.606;23.388;2023-05-16T08:38:35;10.80;;;8.75;;
10260;SDS011;5175;42.606;23.388;2023-05-16T08:41:02;9.50;;;8.53;;
10260;SDS011;5175;42.606;23.388;2023-05-16T08:43:30;9.67;;;8.70;;
10260;SDS011;5175;42.606;23.388;2023-05-16T08:45:59;11.35;;;8.73;;
10260;SDS011;5175;42.606;23.388;2023-05-16T08:48:25;12.68;;;8.77;;
10260;SDS011;5175;42.606;23.388;2023-05-16T08:50:55;10.25;;;8.98;;
10260;SDS011;5175;42.606;23.388;2023-05-16T08:53:31;9.48;;;8.57;;
10260;SDS011;5175;42.606;23.388;2023-05-16T08:56:01;8.82;;;7.75;;
10260;SDS011;5175;42.606;23.388;2023-05-16T08:58:29;8.77;;;7.88;;
10260;SDS011;5175;42.606;23.388;2023-05-16T09:00:56;11.05;;;8.23;;
10260;SDS011;5175;42.606;23.388;2023-05-16T09:03:23;9.68;;;8.00;;
10260;SDS011;5175;42.606;23.388;2023-05-16T09:05:52;13.13;;;7.60;;
10260;SDS011;5175;42.606;23.388;2023-05-16T09:08:21;10.70;;;8.27;;
10260;SDS011;5175;42.606;23.388;2023-05-16T09:10:48;9.38;;;7.95;;
10260;SDS011;5175;42.606;23.388;2023-05-16T09:13:15;14.68;;;8.63;;
10260;SDS011;5175;42.606;23.388;2023-05-16T09:15:45;11.57;;;7.75;;
10260;SDS011;5175;42.606;23.388;2023-05-16T09:18:11;10.10;;;8.45;;
10260;SDS011;5175;42.606;23.388;2023-05-16T09:20:42;11.73;;;8.60;;
10260;SDS011;5175;42.606;23.388;2023-05-16T09:23:11;10.52;;;8.45;;
10260;SDS011;5175;42.606;23.388;2023-05-16T09:25:40;10.45;;;8.45;;
10260;SDS011;5175;42.606;23.388;2023-05-16T09:28:09;9.27;;;8.10;;
10260;SDS011;5175;42.606;23.388;2023-05-16T09:30:37;12.93;;;8.38;;
10260;SDS011;5175;42.606;23.388;2023-05-16T09:33:06;9.75;;;8.70;;
10260;SDS011;5175;42.606;23.388;2023-05-16T09:35:33;13.15;;;8.80;;
10260;SDS011;5175;42.606;23.388;2023-05-16T09:37:59;20.38;;;9.18;;
10260;SDS011;5175;42.606;23.388;2023-05-16T09:40:26;11.15;;;8.70;;
10260;SDS011;5175;42.606;23.388;2023-05-16T09:43:01;11.10;;;8.50;;
10260;SDS011;5175;42.606;23.388;2023-05-16T09:45:29;9.95;;;8.95;;
10260;SDS011;5175;42.606;23.388;2023-05-16T09:48:00;9.70;;;8.55;;
10260;SDS011;5175;42.606;23.388;2023-05-16T09:50:31;10.95;;;9.10;;
10260;SDS011;5175;42.606;23.388;2023-05-16T09:52:58;9.98;;;8.75;;
10260;SDS011;5175;42.606;23.388;2023-05-16T09:55:25;12.25;;;9.05;;
10260;SDS011;5175;42.606;23.388;2023-05-16T09:57:52;10.77;;;9.10;;
10260;SDS011;5175;42.606;23.388;2023-05-16T10:00:20;11.40;;;8.80;;
10260;SDS011;5175;42.606;23.388;2023-05-16T10:02:47;11.30;;;9.27;;
10260;SDS011;5175;42.606;23.388;2023-05-16T10:05:16;11.30;;;8.73;;
10260;SDS011;5175;42.606;23.388;2023-05-16T10:07:42;10.95;;;9.70;;
10260;SDS011;5175;42.606;23.388;2023-05-16T10:10:10;11.52;;;9.90;;
10260;SDS011;5175;42.606;23.388;2023-05-16T10:12:39;11.70;;;10.18;;
10260;SDS011;5175;42.606;23.388;2023-05-16T10:15:07;16.20;;;10.80;;
10260;SDS011;5175;42.606;23.388;2023-05-16T10:17:38;12.00;;;9.77;;
10260;SDS011;5175;42.606;23.388;2023-05-16T10:20:06;12.77;;;9.63;;
10260;SDS011;5175;42.606;23.388;2023-05-16T10:22:38;12.30;;;10.00;;
10260;SDS011;5175;42.606;23.388;2023-05-16T10:25:10;11.52;;;9.52;;
10260;SDS011;5175;42.606;23.388;2023-05-16T10:27:43;12.68;;;9.88;;
10260;SDS011;5175;42.606;23.388;2023-05-16T10:30:11;13.82;;;9.30;;
10260;SDS011;5175;42.606;23.388;2023-05-16T10:32:40;10.38;;;8.90;;
10260;SDS011;5175;42.606;23.388;2023-05-16T10:35:07;11.13;;;10.00;;
10260;SDS011;5175;42.606;23.388;2023-05-16T10:37:35;12.60;;;10.00;;
10260;SDS011;5175;42.606;23.388;2023-05-16T10:40:03;10.05;;;8.73;;
10260;SDS011;5175;42.606;23.388;2023-05-16T10:42:32;11.63;;;9.02;;
10260;SDS011;5175;42.606;23.388;2023-05-16T10:45:07;11.05;;;9.55;;
10260;SDS011;5175;42.606;23.388;2023-05-16T10:47:42;13.40;;;9.20;;
10260;SDS011;5175;42.606;23.388;2023-05-16T10:50:29;10.30;;;9.23;;
10260;SDS011;5175;42.606;23.388;2023-05-16T10:52:56;11.25;;;8.52;;
10260;SDS011;5175;42.606;23.388;2023-05-16T10:55:37;12.70;;;9.10;;
10260;SDS011;5175;42.606;23.388;2023-05-16T10:58:05;10.50;;;9.00;;
10260;SDS011;5175;42.606;23.388;2023-05-16T11:00:31;11.40;;;8.23;;
10260;SDS011;5175;42.606;23.388;2023-05-16T11:03:04;12.52;;;8.75;;
10260;SDS011;5175;42.606;23.388;2023-05-16T11:05:31;10.10;;;8.20;;
10260;SDS011;5175;42.606;23.388;2023-05-16T11:08:02;10.60;;;8.35;;
10260;SDS011;5175;42.606;23.388;2023-05-16T11:10:31;9.18;;;7.82;;
10260;SDS011;5175;42.606;23.388;2023-05-16T11:13:01;11.55;;;8.25;;
10260;SDS011;5175;42.606;23.388;2023-05-16T11:15:32;10.25;;;8.43;;
10260;SDS011;5175;42.606;23.388;2023-05-16T11:18:04;10.48;;;8.13;;
10260;SDS011;5175;42.606;23.388;2023-05-16T11:20:32;10.35;;;8.55;;
10260;SDS011;5175;42.606;23.388;2023-05-16T11:25:46;9.40;;;7.65;;
10260;SDS011;5175;42.606;23.388;2023-05-16T11:28:16;10.88;;;8.70;;
10260;SDS011;5175;42.606;23.388;2023-05-16T11:30:45;11.52;;;8.60;;
10260;SDS011;5175;42.606;23.388;2023-05-16T11:33:14;11.73;;;8.55;;
10260;SDS011;5175;42.606;23.388;2023-05-16T11:35:41;9.43;;;8.18;;
10260;SDS011;5175;42.606;23.388;2023-05-16T11:38:11;9.02;;;8.13;;
10260;SDS011;5175;42.606;23.388;2023-05-16T11:40:43;12.15;;;8.32;;
10260;SDS011;5175;42.606;23.388;2023-05-16T11:43:10;9.48;;;8.45;;
10260;SDS011;5175;42.606;23.388;2023-05-16T11:45:43;11.48;;;8.57;;
10260;SDS011;5175;42.606;23.388;2023-05-16T11:48:10;11.18;;;8.02;;
10260;SDS011;5175;42.606;23.388;2023-05-16T11:50:39;10.00;;;8.55;;
10260;SDS011;5175;42.606;23.388;2023-05-16T11:53:06;9.98;;;8.20;;
10260;SDS011;5175;42.606;23.388;2023-05-16T11:55:33;14.68;;;8.57;;
10260;SDS011;5175;42.606;23.388;2023-05-16T11:58:01;12.68;;;8.38;;
10260;SDS011;5175;42.606;23.388;2023-05-16T12:00:28;11.30;;;8.48;;
10260;SDS011;5175;42.606;23.388;2023-05-16T12:02:59;11.35;;;7.95;;
10260;SDS011;5175;42.606;23.388;2023-05-16T12:05:29;9.25;;;8.35;;
10260;SDS011;5175;42.606;23.388;2023-05-16T12:07:58;9.27;;;7.88;;
10260;SDS011;5175;42.606;23.388;2023-05-16T12:10:24;9.10;;;7.72;;
10260;SDS011;5175;42.606;23.388;2023-05-16T12:12:51;10.07;;;8.35;;
10260;SDS011;5175;42.606;23.388;2023-05-16T12:15:20;8.88;;;8.00;;
10260;SDS011;5175;42.606;23.388;2023-05-16T12:17:47;10.45;;;8.18;;
10260;SDS011;5175;42.606;23.388;2023-05-16T12:20:16;10.98;;;7.82;;
10260;SDS011;5175;42.606;23.388;2023-05-16T12:22:43;10.13;;;8.10;;
10260;SDS011;5175;42.606;23.388;2023-05-16T12:25:22;9.98;;;7.90;;
10260;SDS011;5175;42.606;23.388;2023-05-16T12:27:51;11.13;;;8.73;;
10260;SDS011;5175;42.606;23.388;2023-05-16T12:30:20;10.45;;;7.97;;
10260;SDS011;5175;42.606;23.388;2023-05-16T12:32:52;12.93;;;8.68;;
10260;SDS011;5175;42.606;23.388;2023-05-16T12:35:21;11.32;;;8.15;;
10260;SDS011;5175;42.606;23.388;2023-05-16T12:37:48;12.50;;;8.32;;
10260;SDS011;5175;42.606;23.388;2023-05-16T12:40:15;11.77;;;8.32;;
10260;SDS011;5175;42.606;23.388;2023-05-16T12:42:44;11.40;;;8.55;;
10260;SDS011;5175;42.606;23.388;2023-05-16T12:45:14;11.82;;;8.40;;
10260;SDS011;5175;42.606;23.388;2023-05-16T12:47:42;10.90;;;7.80;;
10260;SDS011;5175;42.606;23.388;2023-05-16T12:50:10;15.23;;;7.72;;
10260;SDS011;5175;42.606;23.388;2023-05-16T12:52:45;11.48;;;8.13;;
10260;SDS011;5175;42.606;23.388;2023-05-16T12:55:13;8.88;;;7.63;;
10260;SDS011;5175;42.606;23.388;2023-05-16T12:57:40;11.05;;;7.63;;
10260;SDS011;5175;42.606;23.388;2023-05-16T13:00:11;9.23;;;7.47;;
10260;SDS011;5175;42.606;23.388;2023-05-16T13:02:39;8.98;;;7.30;;
10260;SDS011;5175;42.606;23.388;2023-05-16T13:05:07;13.57;;;8.13;;
10260;SDS011;5175;42.606;23.388;2023-05-16T13:07:34;9.25;;;7.05;;
10260;SDS011;5175;42.606;23.388;2023-05-16T13:10:01;8.35;;;7.13;;
10260;SDS011;5175;42.606;23.388;2023-05-16T13:12:30;8.65;;;7.47;;
10260;SDS011;5175;42.606;23.388;2023-05-16T13:14:57;10.85;;;7.60;;
10260;SDS011;5175;42.606;23.388;2023-05-16T13:17:25;9.80;;;7.68;;
10260;SDS011;5175;42.606;23.388;2023-05-16T13:19:54;10.18;;;8.25;;
10260;SDS011;5175;42.606;23.388;2023-05-16T13:22:21;9.07;;;7.63;;
10260;SDS011;5175;42.606;23.388;2023-05-16T13:24:47;11.85;;;8.07;;
10260;SDS011;5175;42.606;23.388;2023-05-16T13:27:15;12.32;;;7.65;;
10260;SDS011;5175;42.606;23.388;2023-05-16T13:29:42;11.50;;;8.18;;
10260;SDS011;5175;42.606;23.388;2023-05-16T13:32:09;10.10;;;7.82;;
10260;SDS011;5175;42.606;23.388;2023-05-16T13:34:38;12.93;;;8.23;;
10260;SDS011;5175;42.606;23.388;2023-05-16T13:37:04;13.88;;;8.02;;
10260;SDS011;5175;42.606;23.388;2023-05-16T13:39:32;14.30;;;8.32;;
10260;SDS011;5175;42.606;23.388;2023-05-16T13:41:58;14.98;;;8.32;;
10260;SDS011;5175;42.606;23.388;2023-05-16T13:44:27;16.70;;;8.85;;
10260;SDS011;5175;42.606;23.388;2023-05-16T13:46:53;12.88;;;8.50;;
10260;SDS011;5175;42.606;23.388;2023-05-16T13:49:21;13.73;;;8.57;;
10260;SDS011;5175;42.606;23.388;2023-05-16T13:51:49;13.25;;;8.70;;
10260;SDS011;5175;42.606;23.388;2023-05-16T13:54:17;15.15;;;8.63;;
10260;SDS011;5175;42.606;23.388;2023-05-16T13:56:44;21.35;;;8.88;;
10260;SDS011;5175;42.606;23.388;2023-05-16T13:59:11;12.25;;;8.68;;
10260;SDS011;5175;42.606;23.388;2023-05-16T14:01:37;15.93;;;9.02;;
10260;SDS011;5175;42.606;23.388;2023-05-16T14:04:04;17.25;;;9.20;;
10260;SDS011;5175;42.606;23.388;2023-05-16T14:06:31;17.73;;;9.05;;
10260;SDS011;5175;42.606;23.388;2023-05-16T14:08:59;17.67;;;11.38;;
10260;SDS011;5175;42.606;23.388;2023-05-16T14:11:27;18.35;;;10.65;;
10260;SDS011;5175;42.606;23.388;2023-05-16T14:13:54;21.45;;;10.25;;
10260;SDS011;5175;42.606;23.388;2023-05-16T14:16:21;14.65;;;9.88;;
10260;SDS011;5175;42.606;23.388;2023-05-16T14:18:48;16.20;;;10.93;;
10260;SDS011;5175;42.606;23.388;2023-05-16T14:21:15;17.05;;;11.10;;
10260;SDS011;5175;42.606;23.388;2023-05-16T14:23:41;20.73;;;11.20;;
10260;SDS011;5175;42.606;23.388;2023-05-16T14:26:12;18.83;;;11.13;;
10260;SDS011;5175;42.606;23.388;2023-05-16T14:28:39;14.90;;;10.90;;
10260;SDS011;5175;42.606;23.388;2023-05-16T14:31:05;15.23;;;11.52;;
10260;SDS011;5175;42.606;23.388;2023-05-16T14:33:32;17.73;;;12.25;;
10260;SDS011;5175;42.606;23.388;2023-05-16T14:35:59;16.30;;;12.25;;
10260;SDS011;5175;42.606;23.388;2023-05-16T14:38:27;18.05;;;13.02;;